createdAt,value
2017-04-22T08:35:09.415Z,55.90
2017-04-22T08:36:09.549Z,55.20
2017-04-22T08:37:09.815Z,54.20
2017-04-22T08:38:12.020Z,54.40
2017-04-22T08:39:12.444Z,54.90
2017-04-22T08:40:13.380Z,54.80
2017-04-22T08:41:14.571Z,54.40
2017-04-22T08:42:14.920Z,54.90
2017-04-22T08:43:15.386Z,55.60
2017-04-22T08:44:15.505Z,54.90
2017-04-22T08:45:15.628Z,55.60
2017-04-22T08:46:16.556Z,55.00
2017-04-22T08:47:16.638Z,54.70
2017-04-22T08:48:17.099Z,55.80
2017-04-22T08:49:17.191Z,56.40
2017-04-22T08:50:18.018Z,58.00
2017-04-22T08:51:18.523Z,57.30
2017-04-22T08:52:18.650Z,57.30
2017-04-22T08:53:19.575Z,59.70
2017-04-22T08:54:19.890Z,61.80
2017-04-22T08:55:20.049Z,60.20
2017-04-22T08:56:20.171Z,60.10
2017-04-22T08:57:20.241Z,60.40
2017-04-22T08:58:20.588Z,61.10
2017-04-22T08:59:20.614Z,62.90
2017-04-22T09:00:21.473Z,63.20
2017-04-22T09:01:21.592Z,60.40
2017-04-22T09:02:21.860Z,61.20
2017-04-22T09:03:26.015Z,61.40
2017-04-22T09:04:26.093Z,60.90
2017-04-22T09:05:26.178Z,60.90
2017-04-22T09:06:27.475Z,57.30
2017-04-22T09:07:27.634Z,58.40
2017-04-22T09:08:27.731Z,57.80
2017-04-22T09:09:27.828Z,55.90
2017-04-22T09:10:27.890Z,54.30
2017-04-22T09:11:28.206Z,53.90
2017-04-22T09:12:28.424Z,52.80
2017-04-22T09:13:28.508Z,54.40
2017-04-22T09:14:28.561Z,55.70
2017-04-22T09:15:29.322Z,55.40
2017-04-22T09:16:29.494Z,56.00
2017-04-22T09:17:29.795Z,55.10
2017-04-22T09:18:30.171Z,54.50
2017-04-22T09:19:31.076Z,55.80
2017-04-22T09:20:31.850Z,56.60
2017-04-22T09:21:32.761Z,56.10
2017-04-22T09:22:34.245Z,56.80
2017-04-22T09:23:34.841Z,56.60
2017-04-22T09:24:35.744Z,52.60
2017-04-22T09:25:35.986Z,50.50
2017-04-22T09:26:36.079Z,52.50
2017-04-22T09:27:36.949Z,50.80
2017-04-22T09:28:37.778Z,52.00
2017-04-22T09:29:38.636Z,51.70
2017-04-22T09:30:38.838Z,51.40
2017-04-22T09:31:39.214Z,53.70
2017-04-22T09:32:39.323Z,53.20
2017-04-22T09:33:39.408Z,54.20
2017-04-22T09:34:39.770Z,55.10
2017-04-22T09:35:41.483Z,54.40
2017-04-22T09:36:41.796Z,53.50
2017-04-22T09:37:42.333Z,53.70
2017-04-22T09:38:42.415Z,54.30
2017-04-22T09:39:43.253Z,53.90
2017-04-22T09:40:43.578Z,53.90
2017-04-22T09:41:43.621Z,55.00
2017-04-22T09:42:43.742Z,54.80
2017-04-22T09:43:45.051Z,56.80
2017-04-22T09:44:45.297Z,56.40
2017-04-22T09:45:46.183Z,57.50
2017-04-22T09:46:46.341Z,57.80
2017-04-22T09:47:47.395Z,59.50
2017-04-22T09:48:47.731Z,58.40
2017-04-22T09:49:47.922Z,57.90
2017-04-22T09:50:48.079Z,59.00
2017-04-22T09:51:48.298Z,59.30
2017-04-22T09:52:48.536Z,58.20
2017-04-22T09:53:48.825Z,58.00
2017-04-22T09:54:48.991Z,59.20
2017-04-22T09:55:49.171Z,57.30
2017-04-22T09:56:50.216Z,56.90
2017-04-22T09:57:51.253Z,56.60
2017-04-22T09:58:51.714Z,55.00
2017-04-22T09:59:52.028Z,55.50
2017-04-22T10:00:52.263Z,53.50
2017-04-22T10:01:52.487Z,53.00
2017-04-22T10:02:52.633Z,53.30
2017-04-22T10:03:52.858Z,54.20
2017-04-22T10:04:53.276Z,53.40
2017-04-22T10:05:53.496Z,53.30
2017-04-22T10:06:53.732Z,53.00
2017-04-22T10:07:54.138Z,51.50
2017-04-22T10:08:54.432Z,51.80
2017-04-22T10:09:54.743Z,52.20
2017-04-22T10:10:54.896Z,52.40
2017-04-22T10:11:55.052Z,54.00
2017-04-22T10:12:55.524Z,52.70
2017-04-22T10:13:57.519Z,53.80
2017-04-22T10:14:58.669Z,51.40
2017-04-22T10:15:58.835Z,50.80
2017-04-22T10:16:59.749Z,47.90
2017-04-22T10:17:59.851Z,47.90
2017-04-22T10:19:00.738Z,48.60
2017-04-22T10:20:00.880Z,48.80
2017-04-22T10:21:01.509Z,46.60
2017-04-22T10:22:02.575Z,45.90
2017-04-22T10:23:02.832Z,46.80
2017-04-22T10:24:02.940Z,47.80
2017-04-22T10:25:03.140Z,47.60
2017-04-22T10:26:03.220Z,48.80
2017-04-22T10:27:04.153Z,48.80
2017-04-22T10:28:04.951Z,49.00
2017-04-22T10:29:06.249Z,49.40
2017-04-22T10:30:06.439Z,49.40
2017-04-22T10:31:06.650Z,48.40
2017-04-22T10:32:07.448Z,48.80
2017-04-22T10:33:07.603Z,49.20
2017-04-22T10:34:07.716Z,49.00
2017-04-22T10:35:08.183Z,49.40
2017-04-22T10:36:08.394Z,50.20
2017-04-22T10:37:08.433Z,50.10
2017-04-22T10:38:08.546Z,49.00
2017-04-22T10:39:08.640Z,47.70
2017-04-22T10:40:09.477Z,47.20
2017-04-22T10:41:10.306Z,46.80
2017-04-22T10:42:10.400Z,46.40
2017-04-22T10:43:11.188Z,48.10
2017-04-22T10:44:12.083Z,47.40
2017-04-22T10:45:12.251Z,45.30
2017-04-22T10:46:12.395Z,47.20
2017-04-22T10:47:12.788Z,47.20
2017-04-22T10:48:13.670Z,46.80
2017-04-22T10:49:14.082Z,45.50
2017-04-22T10:50:14.226Z,46.30
2017-04-22T10:51:15.094Z,46.60
2017-04-22T10:52:15.247Z,46.60
2017-04-22T10:53:15.583Z,47.00
2017-04-22T10:54:16.416Z,47.80
2017-04-22T10:55:16.490Z,48.30
2017-04-22T10:56:16.584Z,48.70
2017-04-22T10:57:16.694Z,48.20
2017-04-22T10:58:16.845Z,48.80
2017-04-22T10:59:16.957Z,48.70
2017-04-22T11:00:17.321Z,49.30
2017-04-22T11:01:17.551Z,50.10
2017-04-22T11:02:17.599Z,50.90
2017-04-22T11:03:29.605Z,51.10
2017-04-22T11:04:29.731Z,51.70
2017-04-22T11:05:29.867Z,51.30
2017-04-22T11:06:30.687Z,51.10
2017-04-22T11:07:30.971Z,50.30
2017-04-22T11:08:44.786Z,50.80
2017-04-22T11:09:44.905Z,50.90
2017-04-22T11:10:44.965Z,50.40
2017-04-22T11:11:45.461Z,50.60
2017-04-22T11:12:46.536Z,50.20
2017-04-22T11:13:46.655Z,49.50
2017-04-22T11:14:47.969Z,47.30
2017-04-22T11:15:48.079Z,47.00
2017-04-22T11:16:48.203Z,48.10
2017-04-22T11:17:49.269Z,47.60
2017-04-22T11:18:56.888Z,47.80
2017-04-22T11:19:57.305Z,47.60
2017-04-22T11:20:58.174Z,47.50
2017-04-22T11:21:59.239Z,47.70
2017-04-22T11:22:59.358Z,46.60
2017-04-22T11:23:59.435Z,46.40
2017-04-22T11:24:59.562Z,46.20
2017-04-22T11:25:59.786Z,46.80
2017-04-22T11:26:59.986Z,46.90
2017-04-22T11:28:00.603Z,46.50
2017-04-22T11:29:00.862Z,46.90
2017-04-22T11:30:01.753Z,46.50
2017-04-22T11:31:01.912Z,47.00
2017-04-22T11:32:02.003Z,45.00
2017-04-22T11:33:02.133Z,44.80
2017-04-22T11:34:02.997Z,44.60
2017-04-22T11:35:03.094Z,45.40
2017-04-22T11:36:03.156Z,45.70
2017-04-22T11:37:04.139Z,45.00
2017-04-22T11:38:05.100Z,46.10
2017-04-22T11:39:05.972Z,45.90
2017-04-22T11:40:07.543Z,46.10
2017-04-22T11:41:08.400Z,43.40
2017-04-22T11:42:08.463Z,44.10
2017-04-22T11:43:08.693Z,44.00
2017-04-22T11:44:08.826Z,44.50
2017-04-22T11:45:09.017Z,44.60
2017-04-22T11:46:09.267Z,44.80
2017-04-22T11:47:09.665Z,45.20
2017-04-22T11:48:09.935Z,45.90
2017-04-22T11:49:10.050Z,45.90
2017-04-22T11:50:10.527Z,43.80
2017-04-22T11:51:10.775Z,42.40
2017-04-22T11:52:10.915Z,41.50
2017-04-22T11:53:11.017Z,41.10
2017-04-22T11:54:11.186Z,42.40
2017-04-22T11:55:11.252Z,42.10
2017-04-22T11:56:11.613Z,42.40
2017-04-22T11:57:12.572Z,43.10
2017-04-22T11:58:13.405Z,42.30
2017-04-22T11:59:13.723Z,42.50
2017-04-22T12:00:13.976Z,42.30
2017-04-22T12:01:14.815Z,42.40
2017-04-22T12:02:14.869Z,42.00
2017-04-22T12:03:14.919Z,42.60
2017-04-22T12:04:15.045Z,42.70
2017-04-22T12:05:15.167Z,42.90
2017-04-22T12:06:15.226Z,43.10
2017-04-22T12:07:15.440Z,43.80
2017-04-22T12:08:15.581Z,42.70
2017-04-22T12:09:16.060Z,42.70
2017-04-22T12:10:16.205Z,39.90
2017-04-22T12:11:16.319Z,40.70
2017-04-22T12:12:17.247Z,39.90
2017-04-22T12:13:17.425Z,38.90
2017-04-22T12:14:17.805Z,38.90
2017-04-22T12:15:18.034Z,38.50
2017-04-22T12:16:19.065Z,37.50
2017-04-22T12:17:19.196Z,38.70
2017-04-22T12:18:19.292Z,40.20
2017-04-22T12:19:19.344Z,40.90
2017-04-22T12:20:19.491Z,40.40
2017-04-22T12:21:19.777Z,39.50
2017-04-22T12:22:20.119Z,38.90
2017-04-22T12:23:21.433Z,39.00
2017-04-22T12:24:21.857Z,37.90
2017-04-22T12:25:22.001Z,38.00
2017-04-22T12:26:22.090Z,37.20
2017-04-22T12:27:23.204Z,38.30
2017-04-22T12:28:23.692Z,39.30
2017-04-22T12:29:23.844Z,38.70
2017-04-22T12:30:26.180Z,39.40
2017-04-22T12:31:26.587Z,39.50
2017-04-22T12:32:26.944Z,39.70
2017-04-22T12:33:27.698Z,40.30
2017-04-22T12:34:28.008Z,39.70
2017-04-22T12:35:28.191Z,39.50
2017-04-22T12:36:29.407Z,39.80
2017-04-22T12:37:29.493Z,39.20
2017-04-22T12:38:29.604Z,39.50
2017-04-22T12:39:29.675Z,40.40
2017-04-22T12:40:29.700Z,41.40
2017-04-22T12:41:29.778Z,40.10
2017-04-22T12:42:30.819Z,40.20
2017-04-22T12:43:31.267Z,40.80
2017-04-22T12:44:31.439Z,41.20
2017-04-22T12:45:32.396Z,42.50
2017-04-22T12:46:32.467Z,41.80
2017-04-22T12:47:34.542Z,41.20
2017-04-22T12:48:35.159Z,41.60
2017-04-22T12:49:35.476Z,42.20
2017-04-22T12:50:35.690Z,42.70
2017-04-22T12:51:36.557Z,42.80
2017-04-22T12:52:37.488Z,43.60
2017-04-22T12:53:37.595Z,43.30
2017-04-22T12:54:38.012Z,43.70
2017-04-22T12:55:38.077Z,43.40
2017-04-22T12:56:38.407Z,43.20
2017-04-22T12:57:38.498Z,43.30
2017-04-22T12:58:39.330Z,43.20
2017-04-22T12:59:39.440Z,43.90
2017-04-22T13:00:39.527Z,44.20
2017-04-22T13:01:39.736Z,44.00
2017-04-22T13:02:40.541Z,43.60
2017-04-22T13:03:40.630Z,44.50
2017-04-22T13:04:40.752Z,45.40
2017-04-22T13:05:41.106Z,45.60
2017-04-22T13:06:42.170Z,45.40
2017-04-22T13:07:42.229Z,45.10
2017-04-22T13:08:42.314Z,45.10
2017-04-22T13:09:42.741Z,45.80
2017-04-22T13:10:42.812Z,45.50
2017-04-22T13:11:42.898Z,45.40
2017-04-22T13:12:43.832Z,45.10
2017-04-22T13:13:44.311Z,45.10
2017-04-22T13:14:44.451Z,45.40
2017-04-22T13:15:44.776Z,44.80
2017-04-22T13:16:44.902Z,44.40
2017-04-22T13:17:45.008Z,44.70
2017-04-22T13:18:45.327Z,44.60
2017-04-22T13:19:45.450Z,45.10
2017-04-22T13:20:46.417Z,45.50
2017-04-22T13:21:47.243Z,45.80
2017-04-22T13:22:47.345Z,46.30
2017-04-22T13:23:47.402Z,46.10
2017-04-22T13:24:47.614Z,46.50
2017-04-22T13:25:47.665Z,47.50
2017-04-22T13:26:48.511Z,49.90
2017-04-22T13:27:48.622Z,51.30
2017-04-22T13:28:49.561Z,52.80
2017-04-22T13:29:49.650Z,51.60
2017-04-22T13:30:49.881Z,50.90
2017-04-22T13:31:50.317Z,51.80
2017-04-22T13:32:50.496Z,51.50
2017-04-22T13:33:51.623Z,50.70
2017-04-22T13:34:51.985Z,50.40
2017-04-22T13:35:52.037Z,49.40
2017-04-22T13:36:52.205Z,48.80
2017-04-22T13:37:52.506Z,47.10
2017-04-22T13:38:52.719Z,47.30
2017-04-22T13:39:53.037Z,46.70
2017-04-22T13:40:53.130Z,46.50
2017-04-22T13:41:53.963Z,45.60
2017-04-22T13:42:54.794Z,44.60
2017-04-22T13:43:55.143Z,44.60
2017-04-22T13:44:57.445Z,45.00
2017-04-22T13:45:57.896Z,43.50
2017-04-22T13:46:57.987Z,44.90
2017-04-22T13:47:58.039Z,43.20
2017-04-22T13:48:58.088Z,41.00
2017-04-22T13:49:59.026Z,42.30
2017-04-22T13:50:59.984Z,43.10
2017-04-22T13:52:00.094Z,42.60
2017-04-22T13:53:00.209Z,42.20
2017-04-22T13:54:00.447Z,41.80
2017-04-22T13:55:00.482Z,40.60
2017-04-22T13:56:01.389Z,39.60
2017-04-22T13:57:01.513Z,39.80
2017-04-22T13:58:02.499Z,40.40
2017-04-22T13:59:02.584Z,40.30
2017-04-22T14:00:02.922Z,39.10
2017-04-22T14:01:03.132Z,38.30
2017-04-22T14:02:03.222Z,38.40
2017-04-22T14:03:03.391Z,39.20
2017-04-22T14:04:03.546Z,39.80
2017-04-22T14:05:04.443Z,40.30
2017-04-22T14:06:05.318Z,39.50
2017-04-22T14:07:05.733Z,38.30
2017-04-22T14:08:05.988Z,38.20
2017-04-22T14:09:06.139Z,39.30
2017-04-22T14:10:06.199Z,40.10
2017-04-22T14:11:06.291Z,40.80
2017-04-22T14:12:06.615Z,40.80
2017-04-22T14:13:06.817Z,41.30
2017-04-22T14:14:06.881Z,42.00
2017-04-22T14:15:07.702Z,41.90
2017-04-22T14:16:07.827Z,42.00
2017-04-22T14:17:08.736Z,43.20
2017-04-22T14:18:08.820Z,43.90
2017-04-22T14:19:09.064Z,46.00
2017-04-22T14:20:09.148Z,49.20
2017-04-22T14:21:09.211Z,50.30
2017-04-22T14:22:09.342Z,50.80
2017-04-22T14:23:09.455Z,51.60
2017-04-22T14:24:09.540Z,51.80
2017-04-22T14:25:09.640Z,50.90
2017-04-22T14:26:10.111Z,51.00
2017-04-22T14:27:10.311Z,49.60
2017-04-22T14:28:11.398Z,49.60
2017-04-22T14:29:11.975Z,50.40
2017-04-22T14:30:12.400Z,51.80
2017-04-22T14:31:12.967Z,52.60
2017-04-22T14:32:13.103Z,53.80
2017-04-22T14:33:13.265Z,54.30
2017-04-22T14:34:14.108Z,54.90
2017-04-22T14:35:14.556Z,55.90
2017-04-22T14:36:14.665Z,55.40
2017-04-22T14:37:14.771Z,55.80
2017-04-22T14:39:15.264Z,56.30
2017-04-22T14:40:16.159Z,55.90
2017-04-22T14:41:16.518Z,56.30
2017-04-22T14:42:16.870Z,56.20
2017-04-22T14:43:17.118Z,56.50
2017-04-22T14:44:17.255Z,56.70
2017-04-22T14:45:17.561Z,57.00
2017-04-22T14:46:17.679Z,58.80
2017-04-22T14:47:17.779Z,57.90
2017-04-22T14:48:17.880Z,58.40
2017-04-22T14:49:18.406Z,59.30
2017-04-22T14:50:18.478Z,61.00
2017-04-22T14:51:18.802Z,63.30
2017-04-22T14:52:19.636Z,63.40
2017-04-22T14:53:19.970Z,62.40
2017-04-22T14:54:20.042Z,62.90
2017-04-22T14:55:20.167Z,65.80
2017-04-22T14:56:21.132Z,68.00
2017-04-22T14:57:21.195Z,70.00
2017-04-22T14:58:22.133Z,67.20
2017-04-22T14:59:22.695Z,67.20
2017-04-22T15:00:23.187Z,67.50
2017-04-22T15:01:24.065Z,67.80
2017-04-22T15:02:24.539Z,68.90
2017-04-22T15:03:24.700Z,69.10
2017-04-22T15:04:24.801Z,68.60
2017-04-22T15:05:25.691Z,69.70
2017-04-22T15:06:25.771Z,71.90
2017-04-22T15:07:26.225Z,68.80
2017-04-22T15:08:26.755Z,70.50
2017-04-22T15:09:26.851Z,74.20
2017-04-22T15:10:27.361Z,72.60
2017-04-22T15:11:28.324Z,71.20
2017-04-22T15:12:27.747Z,74.80
2017-04-22T15:13:27.926Z,73.50
2017-04-22T15:14:28.715Z,73.20
2017-04-22T15:15:29.901Z,70.90
2017-04-22T15:16:30.482Z,70.10
2017-04-22T15:17:30.674Z,72.50
2017-04-22T15:18:30.908Z,73.80
2017-04-22T15:19:31.172Z,71.40
2017-04-22T15:20:31.214Z,72.80
2017-04-22T15:21:31.171Z,72.80
2017-04-22T15:22:31.532Z,69.00
2017-04-22T15:23:31.692Z,69.20
2017-04-22T15:24:32.432Z,71.10
2017-04-22T15:25:32.941Z,71.80
2017-04-22T15:27:33.406Z,73.70
2017-04-22T15:28:34.394Z,75.30
2017-04-22T15:29:35.677Z,73.50
2017-04-22T15:30:36.577Z,72.20
2017-04-22T15:31:37.987Z,70.90
2017-04-22T15:32:37.041Z,70.00
2017-04-22T15:33:37.906Z,70.50
2017-04-22T15:34:38.402Z,69.50
2017-04-22T15:35:38.280Z,71.00
2017-04-22T15:36:38.421Z,68.10
2017-04-22T15:37:38.961Z,70.00
2017-04-22T15:38:39.218Z,70.40
2017-04-22T15:39:39.767Z,68.70
2017-04-22T15:40:40.057Z,69.30
2017-04-22T15:41:41.275Z,68.40
2017-04-22T15:42:41.350Z,66.60
2017-04-22T15:43:41.417Z,67.70
2017-04-22T15:44:42.868Z,69.30
2017-04-22T15:45:42.692Z,67.20
2017-04-22T15:46:44.341Z,66.10
2017-04-22T15:47:44.400Z,64.60
2017-04-22T15:48:44.831Z,65.20
2017-04-22T15:49:44.765Z,66.10
2017-04-22T15:50:45.066Z,62.10
2017-04-22T15:51:45.991Z,60.10
2017-04-22T15:52:46.413Z,61.00
2017-04-22T15:53:47.257Z,59.80
2017-04-22T15:54:46.576Z,60.10
2017-04-22T15:55:46.515Z,59.10
2017-04-22T15:56:47.092Z,60.30
2017-04-22T15:57:47.099Z,61.90
2017-04-22T15:58:47.388Z,61.00
2017-04-22T15:59:47.913Z,61.60
2017-04-22T16:00:48.155Z,63.90
2017-04-22T16:01:48.711Z,61.10
2017-04-22T16:02:49.059Z,62.70
2017-04-22T16:03:49.028Z,59.60
2017-04-22T16:04:49.447Z,59.50
2017-04-22T16:05:49.599Z,58.90
2017-04-22T16:06:49.877Z,57.70
2017-04-22T16:07:49.996Z,59.20
2017-04-22T16:08:51.416Z,59.00
2017-04-22T16:09:51.601Z,59.80
2017-04-22T16:10:51.573Z,58.10
2017-04-22T16:11:55.109Z,57.00
2017-04-22T16:12:53.087Z,55.70
2017-04-22T16:13:53.579Z,55.20
2017-04-22T16:14:53.839Z,54.90
2017-04-22T16:15:54.309Z,54.40
2017-04-22T16:16:54.019Z,56.30
2017-04-22T16:17:54.593Z,55.90
2017-04-22T16:18:54.407Z,53.60
2017-04-22T16:19:54.774Z,53.50
2017-04-22T16:20:55.097Z,52.70
2017-04-22T16:21:56.208Z,52.70
2017-04-22T16:22:57.106Z,52.70
2017-04-22T16:23:57.709Z,55.00
2017-04-22T16:24:57.757Z,56.00
2017-04-22T16:25:57.781Z,56.90
2017-04-22T16:26:58.866Z,57.20
2017-04-22T16:27:58.309Z,58.00
2017-04-22T16:28:58.779Z,59.10
2017-04-22T16:29:59.339Z,58.20
2017-04-22T16:30:59.261Z,59.40
2017-04-22T16:31:59.972Z,60.00
2017-04-22T16:33:00.422Z,59.00
2017-04-22T16:34:00.657Z,58.70
2017-04-22T16:35:00.786Z,57.80
2017-04-22T16:36:01.352Z,57.10
2017-04-22T16:37:01.097Z,57.90
2017-04-22T16:38:01.985Z,57.40
2017-04-22T16:39:02.698Z,57.70
2017-04-22T16:40:02.290Z,57.70
2017-04-22T16:41:02.729Z,56.70
2017-04-22T16:42:03.669Z,57.30
2017-04-22T16:43:04.642Z,56.50
2017-04-22T16:44:05.108Z,57.10
2017-04-22T16:45:04.909Z,56.00
2017-04-22T16:46:05.657Z,54.60
2017-04-22T16:47:05.844Z,55.70
2017-04-22T16:48:06.885Z,54.10
2017-04-22T16:49:08.298Z,54.00
2017-04-22T16:50:08.713Z,53.70
2017-04-22T16:51:11.798Z,53.80
2017-04-22T16:52:10.540Z,52.80
2017-04-22T16:54:13.371Z,52.40
2017-04-22T16:55:14.599Z,51.10
2017-04-22T16:56:14.618Z,50.10
2017-04-22T16:57:15.113Z,50.00
2017-04-22T16:58:16.254Z,50.50
2017-04-22T16:59:16.340Z,49.80
2017-04-22T17:00:16.521Z,49.70
2017-04-22T17:01:16.545Z,49.10
2017-04-22T17:02:17.041Z,50.60
2017-04-22T17:03:16.956Z,51.80
2017-04-22T17:04:17.134Z,53.60
2017-04-22T17:05:18.749Z,54.20
2017-04-22T17:06:18.495Z,55.90
2017-04-22T17:07:18.875Z,56.70
2017-04-22T17:08:19.782Z,56.60
2017-04-22T17:09:20.744Z,56.90
2017-04-22T17:10:20.910Z,58.00
2017-04-22T17:11:21.250Z,59.00
2017-04-22T17:12:23.553Z,59.10
2017-04-22T17:13:23.721Z,59.50
2017-04-22T17:14:24.046Z,60.50
2017-04-22T17:15:24.321Z,60.80
2017-04-22T17:16:24.654Z,61.60
2017-04-22T17:17:25.728Z,61.90
2017-04-22T17:18:26.562Z,62.50
2017-04-22T17:19:27.045Z,61.80
2017-04-22T17:20:28.600Z,62.10
2017-04-22T17:21:27.573Z,62.10
2017-04-22T17:22:27.896Z,63.40
2017-04-22T17:23:28.319Z,65.00
2017-04-22T17:24:28.606Z,64.80
2017-04-22T17:25:29.044Z,67.20
2017-04-22T17:26:30.672Z,68.30
2017-04-22T17:27:29.415Z,69.30
2017-04-22T17:28:29.680Z,69.80
2017-04-22T17:29:30.019Z,70.90
2017-04-22T17:30:30.166Z,70.70
2017-04-22T17:31:31.399Z,70.60
2017-04-22T17:32:32.285Z,71.40
2017-04-22T17:33:32.860Z,71.10
2017-04-22T17:34:32.826Z,70.30
2017-04-22T17:35:33.091Z,69.60
2017-04-22T17:36:33.237Z,68.50
2017-04-22T17:37:33.624Z,66.10
2017-04-22T17:38:34.150Z,66.20
2017-04-22T17:39:34.389Z,67.10
2017-04-22T17:40:35.351Z,65.90
2017-04-22T17:41:35.609Z,65.20
2017-04-22T17:42:37.069Z,65.70
2017-04-22T17:43:37.429Z,66.60
2017-04-22T17:44:37.721Z,66.30
2017-04-22T17:45:38.704Z,67.00
2017-04-22T17:46:39.669Z,67.20
2017-04-22T17:47:40.330Z,67.60
2017-04-22T17:48:41.857Z,67.60
2017-04-22T17:49:42.083Z,67.60
2017-04-22T17:50:42.408Z,68.00
2017-04-22T17:51:42.599Z,68.70
2017-04-22T17:52:42.739Z,68.10
2017-04-22T17:53:43.027Z,68.10
2017-04-22T17:54:43.988Z,68.00
2017-04-22T17:55:44.218Z,67.80
2017-04-22T17:56:44.580Z,68.60
2017-04-22T17:57:45.332Z,67.90
2017-04-22T17:58:45.369Z,68.50
2017-04-22T17:59:45.593Z,68.00
2017-04-22T18:00:46.527Z,67.80
2017-04-22T18:01:47.055Z,67.90
2017-04-22T18:02:47.198Z,68.00
2017-04-22T18:03:47.310Z,68.20
2017-04-22T18:04:47.859Z,67.80
2017-04-22T18:05:47.974Z,67.80
2017-04-22T18:06:50.579Z,67.90
2017-04-22T18:07:48.241Z,67.80
2017-04-22T18:08:48.405Z,68.00
2017-04-22T18:09:49.091Z,68.30
2017-04-22T18:10:50.580Z,68.50
2017-04-22T18:11:49.735Z,68.10
2017-04-22T18:12:52.534Z,68.10
2017-04-22T18:13:51.232Z,67.80
2017-04-22T18:14:51.285Z,67.50
2017-04-22T18:15:51.447Z,67.70
2017-04-22T18:16:51.721Z,67.80
2017-04-22T18:17:53.478Z,67.40
2017-04-22T18:18:52.138Z,67.80
2017-04-22T18:19:54.207Z,67.80
2017-04-22T18:20:53.107Z,68.00
2017-04-22T18:21:53.438Z,68.20
2017-04-22T18:22:53.359Z,68.80
2017-04-22T18:24:54.027Z,66.90
2017-04-22T18:25:54.871Z,66.40
2017-04-22T18:26:54.485Z,67.90
2017-04-22T18:27:54.870Z,70.70
2017-04-22T18:28:55.517Z,71.60
2017-04-22T18:29:55.913Z,74.80
2017-04-22T18:30:55.949Z,75.80
2017-04-22T18:31:56.547Z,75.10
2017-04-22T18:32:57.735Z,77.00
2017-04-22T18:33:58.347Z,77.90
2017-04-22T18:34:59.080Z,79.00
2017-04-22T18:35:59.291Z,79.80
2017-04-22T18:36:59.608Z,81.20
2017-04-22T18:38:00.111Z,82.00
2017-04-22T18:39:01.884Z,81.50
2017-04-22T18:40:00.505Z,81.50
2017-04-22T18:41:00.373Z,80.30
2017-04-22T18:42:00.691Z,81.20
2017-04-22T18:43:03.170Z,79.80
2017-04-22T18:44:02.342Z,81.10
2017-04-22T18:45:02.124Z,81.70
2017-04-22T18:46:03.716Z,81.10
2017-04-22T18:47:02.586Z,82.10
2017-04-22T18:48:02.541Z,83.80
2017-04-22T18:49:05.267Z,83.80
2017-04-22T18:50:57.749Z,81.90
2017-04-22T18:51:57.529Z,81.60
2017-04-22T18:52:57.827Z,79.40
2017-04-22T18:53:59.295Z,80.60
2017-04-22T18:54:59.602Z,80.20
2017-04-22T18:55:59.447Z,80.60
2017-04-22T18:57:01.156Z,81.00
2017-04-22T18:57:59.701Z,79.40
2017-04-22T18:58:59.848Z,79.80
2017-04-22T18:59:59.907Z,81.40
2017-04-22T19:01:00.001Z,82.20
2017-04-22T19:02:01.416Z,79.40
2017-04-22T19:03:04.537Z,77.80
2017-04-22T19:04:02.646Z,80.90
2017-04-22T19:05:04.394Z,81.80
2017-04-22T19:06:03.029Z,82.20
2017-04-22T19:07:03.133Z,82.90
2017-04-22T19:08:03.420Z,81.80
2017-04-22T19:09:03.743Z,81.20
2017-04-22T19:10:03.974Z,81.70
2017-04-22T19:11:04.727Z,83.30
2017-04-22T19:12:05.261Z,83.40
2017-04-22T19:13:05.610Z,83.40
2017-04-22T19:14:05.477Z,83.60
2017-04-22T19:15:06.944Z,83.70
2017-04-22T19:16:07.025Z,84.80
2017-04-22T19:17:07.566Z,84.20
2017-04-22T19:18:07.527Z,84.80
2017-04-22T19:19:07.636Z,81.20
2017-04-22T19:20:08.332Z,82.20
2017-04-22T19:21:10.062Z,82.00
2017-04-22T19:22:09.462Z,81.90
2017-04-22T19:23:09.640Z,83.60
2017-04-22T19:24:09.802Z,82.90
2017-04-22T19:25:09.699Z,83.00
2017-04-22T19:26:10.556Z,83.30
2017-04-22T19:27:13.288Z,83.20
2017-04-22T19:28:12.813Z,83.20
2017-04-22T19:29:11.260Z,82.70
2017-04-22T19:30:11.575Z,83.50
2017-04-22T19:31:11.633Z,81.40
2017-04-22T19:32:12.141Z,81.90
2017-04-22T19:33:12.786Z,82.90
2017-04-22T19:34:13.465Z,82.20
2017-04-22T19:35:14.791Z,83.10
2017-04-22T19:36:13.987Z,83.40
2017-04-22T19:37:14.022Z,82.50
2017-04-22T19:38:15.918Z,82.90
2017-04-22T19:39:16.215Z,83.50
2017-04-22T19:40:14.530Z,82.80
2017-04-22T19:41:15.930Z,83.10
2017-04-22T19:42:15.350Z,83.20
2017-04-22T19:43:16.032Z,83.30
2017-04-22T19:44:16.276Z,83.70
2017-04-22T19:45:16.475Z,83.90
2017-04-22T19:46:17.014Z,83.00
2017-04-22T19:47:17.860Z,84.70
2017-04-22T19:48:19.600Z,84.30
2017-04-22T19:49:17.636Z,85.30
2017-04-22T19:50:18.009Z,83.60
2017-04-22T19:51:18.299Z,84.50
2017-04-22T19:52:20.152Z,83.80
2017-04-22T19:53:19.077Z,84.40
2017-04-22T19:54:23.186Z,85.70
2017-04-22T19:55:20.704Z,85.60
2017-04-22T19:56:19.921Z,85.10
2017-04-22T19:57:19.995Z,84.80
2017-04-22T19:58:21.075Z,84.50
2017-04-22T19:59:20.706Z,84.20
2017-04-22T20:00:21.613Z,84.70
2017-04-22T20:01:25.245Z,84.60
2017-04-22T20:02:22.393Z,85.00
2017-04-22T20:03:22.505Z,84.40
2017-04-22T20:04:23.463Z,84.40
2017-04-22T20:05:24.363Z,84.20
2017-04-22T20:06:24.255Z,84.40
2017-04-22T20:07:24.231Z,85.20
2017-04-22T20:08:24.915Z,84.60
2017-04-22T20:09:27.178Z,84.30
2017-04-22T20:10:25.699Z,83.80
2017-04-22T20:11:26.324Z,82.20
2017-04-22T20:12:26.195Z,83.00
2017-04-22T20:13:26.967Z,83.80
2017-04-22T20:14:26.786Z,83.50
2017-04-22T20:15:27.400Z,82.30
2017-04-22T20:16:29.388Z,83.00
2017-04-22T20:17:29.528Z,83.00
2017-04-22T20:18:30.551Z,82.80
2017-04-22T20:19:29.488Z,83.80
2017-04-22T20:20:31.913Z,82.70
2017-04-22T20:21:31.457Z,83.20
2017-04-22T20:22:30.640Z,82.70
2017-04-22T20:23:30.381Z,83.80
2017-04-22T20:24:30.541Z,82.60
2017-04-22T20:25:40.261Z,81.80
2017-04-22T20:27:32.289Z,82.40
2017-04-22T20:28:32.200Z,82.80
2017-04-22T20:29:33.288Z,83.20
2017-04-22T20:30:35.317Z,84.80
2017-04-22T20:31:37.412Z,83.30
2017-04-22T20:32:35.972Z,83.20
2017-04-22T20:33:36.182Z,83.60
2017-04-22T20:34:37.020Z,82.70
2017-04-22T20:35:37.480Z,82.40
2017-04-22T20:36:37.175Z,82.20
2017-04-22T20:37:39.533Z,82.20
2017-04-22T20:38:39.216Z,81.60
2017-04-22T20:39:39.285Z,83.00
2017-04-22T20:40:39.801Z,82.20
2017-04-22T20:41:39.853Z,81.90
2017-04-22T20:42:39.510Z,82.80
2017-04-22T20:43:40.691Z,82.10
2017-04-22T20:44:44.945Z,81.60
2017-04-22T20:45:41.109Z,81.00
2017-04-22T20:46:41.089Z,83.00
2017-04-22T20:47:41.961Z,83.40
2017-04-22T20:48:42.094Z,82.70
2017-04-22T20:49:41.257Z,82.00
2017-04-22T20:50:44.265Z,81.00
2017-04-22T20:51:42.988Z,81.80
2017-04-22T20:52:43.354Z,81.40
2017-04-22T20:53:44.029Z,82.00
2017-04-22T20:54:44.635Z,81.50
2017-04-22T20:55:45.182Z,81.20
2017-04-22T20:56:44.811Z,81.50
2017-04-22T20:57:45.864Z,80.60
2017-04-22T20:58:45.688Z,80.80
2017-04-22T20:59:46.744Z,80.70
2017-04-22T21:00:46.331Z,81.40
2017-04-22T21:01:46.511Z,82.00
2017-04-22T21:02:46.601Z,80.40
2017-04-22T21:03:46.864Z,80.80
2017-04-22T21:04:47.048Z,81.20
2017-04-22T21:05:48.127Z,80.60
2017-04-22T21:06:48.288Z,81.00
2017-04-22T21:07:48.368Z,80.60
2017-04-22T21:08:48.513Z,80.00
2017-04-22T21:09:48.742Z,80.40
2017-04-22T21:10:48.850Z,80.60
2017-04-22T21:11:49.042Z,80.40
2017-04-22T21:12:49.896Z,79.10
2017-04-22T21:13:50.066Z,80.20
2017-04-22T21:14:51.260Z,80.70
2017-04-22T21:15:51.652Z,81.30
2017-04-22T21:16:51.758Z,80.40
2017-04-22T21:17:52.689Z,81.00
2017-04-22T21:18:53.891Z,79.80
2017-04-22T21:19:55.133Z,79.30
2017-04-22T21:20:55.201Z,79.30
2017-04-22T21:21:55.417Z,79.40
2017-04-22T21:22:55.516Z,80.00
2017-04-22T21:23:55.550Z,79.50
2017-04-22T21:24:55.976Z,79.20
2017-04-22T21:25:56.095Z,80.00
2017-04-22T21:26:56.182Z,79.20
2017-04-22T21:27:56.652Z,78.10
2017-04-22T21:28:56.865Z,79.50
2017-04-22T21:29:57.768Z,78.60
2017-04-22T21:30:57.885Z,78.00
2017-04-22T21:31:58.059Z,78.60
2017-04-22T21:32:58.166Z,79.10
2017-04-22T21:33:58.387Z,78.30
2017-04-22T21:34:59.267Z,78.10
2017-04-22T21:35:59.451Z,77.50
2017-04-22T21:36:59.569Z,77.20
2017-04-22T21:37:59.681Z,76.80
2017-04-22T21:38:59.789Z,77.20